sensor_id;sensor_type;location;lat;lon;timestamp;temperature;humidity
32600;DHT22;19277;51.778;7.912;2023-05-07T00:00:23;20.60;82.10
32600;DHT22;19277;51.778;7.912;2023-05-07T00:02:49;20.60;81.80
32600;DHT22;19277;51.778;7.912;2023-05-07T00:05:15;20.60;81.90
32600;DHT22;19277;51.778;7.912;2023-05-07T00:07:41;20.60;81.80
32600;DHT22;19277;51.778;7.912;2023-05-07T00:10:07;20.70;81.80
32600;DHT22;19277;51.778;7.912;2023-05-07T00:12:32;20.70;81.80
32600;DHT22;19277;51.778;7.912;2023-05-07T00:15:00;20.70;82.10
32600;DHT22;19277;51.778;7.912;2023-05-07T00:17:26;20.70;81.80
32600;DHT22;19277;51.778;7.912;2023-05-07T00:19:51;20.60;81.70
32600;DHT22;19277;51.778;7.912;2023-05-07T00:22:17;20.70;82.00
32600;DHT22;19277;51.778;7.912;2023-05-07T00:24:42;20.70;81.80
32600;DHT22;19277;51.778;7.912;2023-05-07T00:27:08;20.70;81.90
32600;DHT22;19277;51.778;7.912;2023-05-07T00:29:34;20.70;81.70
32600;DHT22;19277;51.778;7.912;2023-05-07T00:31:59;20.70;81.80
32600;DHT22;19277;51.778;7.912;2023-05-07T00:34:25;20.70;82.00
32600;DHT22;19277;51.778;7.912;2023-05-07T00:36:50;20.70;82.10
32600;DHT22;19277;51.778;7.912;2023-05-07T00:39:16;20.70;82.00
32600;DHT22;19277;51.778;7.912;2023-05-07T00:41:42;20.80;81.60
32600;DHT22;19277;51.778;7.912;2023-05-07T00:44:08;20.80;81.60
32600;DHT22;19277;51.778;7.912;2023-05-07T00:46:34;20.80;81.80
32600;DHT22;19277;51.778;7.912;2023-05-07T00:48:59;20.70;81.70
32600;DHT22;19277;51.778;7.912;2023-05-07T00:51:25;20.70;81.60
32600;DHT22;19277;51.778;7.912;2023-05-07T00:53:53;20.70;81.40
32600;DHT22;19277;51.778;7.912;2023-05-07T00:56:22;20.80;81.60
32600;DHT22;19277;51.778;7.912;2023-05-07T00:58:49;20.80;81.20
32600;DHT22;19277;51.778;7.912;2023-05-07T01:01:14;20.80;81.20
32600;DHT22;19277;51.778;7.912;2023-05-07T01:03:42;20.80;81.50
32600;DHT22;19277;51.778;7.912;2023-05-07T01:06:08;20.80;81.10
32600;DHT22;19277;51.778;7.912;2023-05-07T01:08:35;20.80;81.10
32600;DHT22;19277;51.778;7.912;2023-05-07T01:11:01;20.80;81.10
32600;DHT22;19277;51.778;7.912;2023-05-07T01:13:27;20.80;81.00
32600;DHT22;19277;51.778;7.912;2023-05-07T01:15:53;20.80;80.60
32600;DHT22;19277;51.778;7.912;2023-05-07T01:18:19;20.80;80.60
32600;DHT22;19277;51.778;7.912;2023-05-07T01:20:45;20.80;81.00
32600;DHT22;19277;51.778;7.912;2023-05-07T01:23:11;20.80;80.50
32600;DHT22;19277;51.778;7.912;2023-05-07T01:25:37;20.80;80.30
32600;DHT22;19277;51.778;7.912;2023-05-07T01:28:02;20.80;80.50
32600;DHT22;19277;51.778;7.912;2023-05-07T01:30:28;20.80;80.70
32600;DHT22;19277;51.778;7.912;2023-05-07T01:33:13;20.80;80.70
32600;DHT22;19277;51.778;7.912;2023-05-07T01:35:43;20.80;81.30
32600;DHT22;19277;51.778;7.912;2023-05-07T01:38:11;20.80;80.40
32600;DHT22;19277;51.778;7.912;2023-05-07T01:40:37;20.80;80.50
32600;DHT22;19277;51.778;7.912;2023-05-07T01:43:03;20.80;80.10
32600;DHT22;19277;51.778;7.912;2023-05-07T01:45:30;20.80;80.50
32600;DHT22;19277;51.778;7.912;2023-05-07T01:47:58;20.80;80.40
32600;DHT22;19277;51.778;7.912;2023-05-07T01:50:25;20.80;80.70
32600;DHT22;19277;51.778;7.912;2023-05-07T01:52:51;20.80;80.90
32600;DHT22;19277;51.778;7.912;2023-05-07T01:55:17;20.70;80.50
32600;DHT22;19277;51.778;7.912;2023-05-07T01:57:42;20.70;80.00
32600;DHT22;19277;51.778;7.912;2023-05-07T02:00:08;20.70;79.80
32600;DHT22;19277;51.778;7.912;2023-05-07T02:02:34;20.70;79.90
32600;DHT22;19277;51.778;7.912;2023-05-07T02:05:00;20.70;79.80
32600;DHT22;19277;51.778;7.912;2023-05-07T02:07:27;20.70;79.80
32600;DHT22;19277;51.778;7.912;2023-05-07T02:09:53;20.70;79.60
32600;DHT22;19277;51.778;7.912;2023-05-07T02:12:19;20.70;80.00
32600;DHT22;19277;51.778;7.912;2023-05-07T02:14:44;20.70;79.80
32600;DHT22;19277;51.778;7.912;2023-05-07T02:17:10;20.70;79.80
32600;DHT22;19277;51.778;7.912;2023-05-07T02:19:35;20.70;79.90
32600;DHT22;19277;51.778;7.912;2023-05-07T02:22:01;20.70;79.90
32600;DHT22;19277;51.778;7.912;2023-05-07T02:24:26;20.70;79.70
32600;DHT22;19277;51.778;7.912;2023-05-07T02:26:52;20.70;80.10
32600;DHT22;19277;51.778;7.912;2023-05-07T02:29:17;20.70;79.80
32600;DHT22;19277;51.778;7.912;2023-05-07T02:31:43;20.70;80.10
32600;DHT22;19277;51.778;7.912;2023-05-07T02:34:08;20.70;79.80
32600;DHT22;19277;51.778;7.912;2023-05-07T02:36:34;20.70;80.60
32600;DHT22;19277;51.778;7.912;2023-05-07T02:39:00;20.70;80.60
32600;DHT22;19277;51.778;7.912;2023-05-07T02:41:26;20.70;80.10
32600;DHT22;19277;51.778;7.912;2023-05-07T02:43:53;20.70;80.30
32600;DHT22;19277;51.778;7.912;2023-05-07T02:46:19;20.70;80.30
32600;DHT22;19277;51.778;7.912;2023-05-07T02:48:44;20.70;80.00
32600;DHT22;19277;51.778;7.912;2023-05-07T02:51:10;20.70;80.50
32600;DHT22;19277;51.778;7.912;2023-05-07T02:53:35;20.70;80.10
32600;DHT22;19277;51.778;7.912;2023-05-07T02:56:01;20.70;80.40
32600;DHT22;19277;51.778;7.912;2023-05-07T02:58:27;20.70;80.00
32600;DHT22;19277;51.778;7.912;2023-05-07T03:00:53;20.70;80.00
32600;DHT22;19277;51.778;7.912;2023-05-07T03:03:22;20.70;79.70
32600;DHT22;19277;51.778;7.912;2023-05-07T03:05:48;20.70;80.40
32600;DHT22;19277;51.778;7.912;2023-05-07T03:08:13;20.70;80.10
32600;DHT22;19277;51.778;7.912;2023-05-07T03:10:39;20.70;80.50
32600;DHT22;19277;51.778;7.912;2023-05-07T03:13:05;20.70;80.60
32600;DHT22;19277;51.778;7.912;2023-05-07T03:15:30;20.70;80.60
32600;DHT22;19277;51.778;7.912;2023-05-07T03:17:56;20.60;80.70
32600;DHT22;19277;51.778;7.912;2023-05-07T03:20:22;20.50;80.90
32600;DHT22;19277;51.778;7.912;2023-05-07T03:22:47;20.60;80.40
32600;DHT22;19277;51.778;7.912;2023-05-07T03:25:13;20.60;80.60
32600;DHT22;19277;51.778;7.912;2023-05-07T03:27:40;20.60;80.60
32600;DHT22;19277;51.778;7.912;2023-05-07T03:30:07;20.60;80.70
32600;DHT22;19277;51.778;7.912;2023-05-07T03:32:34;20.50;80.90
32600;DHT22;19277;51.778;7.912;2023-05-07T03:35:00;20.50;80.90
32600;DHT22;19277;51.778;7.912;2023-05-07T03:37:26;20.50;81.00
32600;DHT22;19277;51.778;7.912;2023-05-07T03:39:52;20.50;81.20
32600;DHT22;19277;51.778;7.912;2023-05-07T03:42:17;20.50;81.00
32600;DHT22;19277;51.778;7.912;2023-05-07T03:44:43;20.50;81.30
32600;DHT22;19277;51.778;7.912;2023-05-07T03:47:08;20.50;80.40
32600;DHT22;19277;51.778;7.912;2023-05-07T03:49:35;20.50;81.10
32600;DHT22;19277;51.778;7.912;2023-05-07T03:52:01;20.50;80.60
32600;DHT22;19277;51.778;7.912;2023-05-07T03:54:27;20.60;80.40
32600;DHT22;19277;51.778;7.912;2023-05-07T03:56:52;20.60;80.80
32600;DHT22;19277;51.778;7.912;2023-05-07T03:59:18;20.60;80.40
32600;DHT22;19277;51.778;7.912;2023-05-07T04:01:43;20.60;80.70
32600;DHT22;19277;51.778;7.912;2023-05-07T04:04:09;20.50;80.50
32600;DHT22;19277;51.778;7.912;2023-05-07T04:06:34;20.50;80.60
32600;DHT22;19277;51.778;7.912;2023-05-07T04:09:00;20.60;80.20
32600;DHT22;19277;51.778;7.912;2023-05-07T04:11:26;20.50;80.10
32600;DHT22;19277;51.778;7.912;2023-05-07T04:13:52;20.50;80.20
32600;DHT22;19277;51.778;7.912;2023-05-07T04:16:17;20.50;80.90
32600;DHT22;19277;51.778;7.912;2023-05-07T04:18:43;20.40;81.00
32600;DHT22;19277;51.778;7.912;2023-05-07T04:21:16;20.50;80.90
32600;DHT22;19277;51.778;7.912;2023-05-07T04:23:41;20.40;80.70
32600;DHT22;19277;51.778;7.912;2023-05-07T04:26:07;20.40;81.00
32600;DHT22;19277;51.778;7.912;2023-05-07T04:28:33;20.40;81.00
32600;DHT22;19277;51.778;7.912;2023-05-07T04:30:59;20.40;80.90
32600;DHT22;19277;51.778;7.912;2023-05-07T04:33:24;20.40;80.50
32600;DHT22;19277;51.778;7.912;2023-05-07T04:35:51;20.50;80.70
32600;DHT22;19277;51.778;7.912;2023-05-07T04:38:17;20.50;80.60
32600;DHT22;19277;51.778;7.912;2023-05-07T04:40:44;20.50;80.50
32600;DHT22;19277;51.778;7.912;2023-05-07T04:43:09;20.50;80.10
32600;DHT22;19277;51.778;7.912;2023-05-07T04:45:36;20.50;79.80
32600;DHT22;19277;51.778;7.912;2023-05-07T04:48:02;20.50;80.10
32600;DHT22;19277;51.778;7.912;2023-05-07T04:50:27;20.50;79.60
32600;DHT22;19277;51.778;7.912;2023-05-07T04:52:53;20.50;80.00
32600;DHT22;19277;51.778;7.912;2023-05-07T04:55:18;20.40;80.00
32600;DHT22;19277;51.778;7.912;2023-05-07T04:57:44;20.40;80.20
32600;DHT22;19277;51.778;7.912;2023-05-07T05:00:11;20.40;80.60
32600;DHT22;19277;51.778;7.912;2023-05-07T05:02:40;20.50;80.00
32600;DHT22;19277;51.778;7.912;2023-05-07T05:05:06;20.50;80.20
32600;DHT22;19277;51.778;7.912;2023-05-07T05:07:32;20.50;80.10
32600;DHT22;19277;51.778;7.912;2023-05-07T05:09:58;20.60;79.60
32600;DHT22;19277;51.778;7.912;2023-05-07T05:12:23;20.60;79.50
32600;DHT22;19277;51.778;7.912;2023-05-07T05:14:49;20.60;79.70
32600;DHT22;19277;51.778;7.912;2023-05-07T05:17:15;20.60;79.50
32600;DHT22;19277;51.778;7.912;2023-05-07T05:19:40;20.70;79.60
32600;DHT22;19277;51.778;7.912;2023-05-07T05:22:06;20.60;79.80
32600;DHT22;19277;51.778;7.912;2023-05-07T05:24:32;20.60;79.50
32600;DHT22;19277;51.778;7.912;2023-05-07T05:26:57;20.60;78.80
32600;DHT22;19277;51.778;7.912;2023-05-07T05:29:25;20.50;79.40
32600;DHT22;19277;51.778;7.912;2023-05-07T05:31:50;20.60;79.30
32600;DHT22;19277;51.778;7.912;2023-05-07T05:34:16;20.60;79.20
32600;DHT22;19277;51.778;7.912;2023-05-07T05:36:43;20.60;79.40
32600;DHT22;19277;51.778;7.912;2023-05-07T05:39:08;20.70;79.00
32600;DHT22;19277;51.778;7.912;2023-05-07T05:41:34;20.70;79.40
32600;DHT22;19277;51.778;7.912;2023-05-07T05:44:00;20.70;79.30
32600;DHT22;19277;51.778;7.912;2023-05-07T05:46:25;20.80;79.30
32600;DHT22;19277;51.778;7.912;2023-05-07T05:48:51;20.80;79.60
32600;DHT22;19277;51.778;7.912;2023-05-07T05:51:16;20.80;79.10
32600;DHT22;19277;51.778;7.912;2023-05-07T05:53:42;20.90;79.20
32600;DHT22;19277;51.778;7.912;2023-05-07T05:56:07;20.90;78.90
32600;DHT22;19277;51.778;7.912;2023-05-07T05:58:33;20.90;79.00
32600;DHT22;19277;51.778;7.912;2023-05-07T06:00:59;20.80;79.30
32600;DHT22;19277;51.778;7.912;2023-05-07T06:03:25;20.80;78.80
32600;DHT22;19277;51.778;7.912;2023-05-07T06:05:51;20.80;79.00
32600;DHT22;19277;51.778;7.912;2023-05-07T06:08:16;20.80;78.70
32600;DHT22;19277;51.778;7.912;2023-05-07T06:10:42;20.80;78.90
32600;DHT22;19277;51.778;7.912;2023-05-07T06:13:08;20.80;79.00
32600;DHT22;19277;51.778;7.912;2023-05-07T06:15:33;20.80;78.80
32600;DHT22;19277;51.778;7.912;2023-05-07T06:17:59;20.90;78.70
32600;DHT22;19277;51.778;7.912;2023-05-07T06:20:24;20.80;78.50
32600;DHT22;19277;51.778;7.912;2023-05-07T06:22:50;20.90;78.20
32600;DHT22;19277;51.778;7.912;2023-05-07T06:25:16;20.80;78.80
32600;DHT22;19277;51.778;7.912;2023-05-07T06:27:41;20.90;78.30
32600;DHT22;19277;51.778;7.912;2023-05-07T06:30:08;21.00;78.10
32600;DHT22;19277;51.778;7.912;2023-05-07T06:32:33;21.00;77.80
32600;DHT22;19277;51.778;7.912;2023-05-07T06:34:59;21.00;78.00
32600;DHT22;19277;51.778;7.912;2023-05-07T06:37:25;21.00;77.70
32600;DHT22;19277;51.778;7.912;2023-05-07T06:39:50;21.00;77.80
32600;DHT22;19277;51.778;7.912;2023-05-07T06:42:16;21.10;77.50
32600;DHT22;19277;51.778;7.912;2023-05-07T06:44:41;21.10;77.70
32600;DHT22;19277;51.778;7.912;2023-05-07T06:47:07;21.10;77.60
32600;DHT22;19277;51.778;7.912;2023-05-07T06:49:33;21.10;77.50
32600;DHT22;19277;51.778;7.912;2023-05-07T06:51:58;21.10;77.40
32600;DHT22;19277;51.778;7.912;2023-05-07T06:54:24;21.20;77.10
32600;DHT22;19277;51.778;7.912;2023-05-07T06:56:49;21.20;76.70
32600;DHT22;19277;51.778;7.912;2023-05-07T06:59:15;21.30;76.90
32600;DHT22;19277;51.778;7.912;2023-05-07T07:01:41;21.30;76.80
32600;DHT22;19277;51.778;7.912;2023-05-07T07:04:06;21.40;76.20
32600;DHT22;19277;51.778;7.912;2023-05-07T07:06:32;21.40;76.90
32600;DHT22;19277;51.778;7.912;2023-05-07T07:08:59;21.30;76.60
32600;DHT22;19277;51.778;7.912;2023-05-07T07:11:24;21.30;76.50
32600;DHT22;19277;51.778;7.912;2023-05-07T07:13:50;21.30;76.30
32600;DHT22;19277;51.778;7.912;2023-05-07T07:16:16;21.40;76.40
32600;DHT22;19277;51.778;7.912;2023-05-07T07:18:41;21.40;76.20
32600;DHT22;19277;51.778;7.912;2023-05-07T07:21:07;21.40;76.70
32600;DHT22;19277;51.778;7.912;2023-05-07T07:23:32;21.40;76.40
32600;DHT22;19277;51.778;7.912;2023-05-07T07:25:58;21.40;76.60
32600;DHT22;19277;51.778;7.912;2023-05-07T07:28:24;21.40;76.20
32600;DHT22;19277;51.778;7.912;2023-05-07T07:30:49;21.50;76.40
32600;DHT22;19277;51.778;7.912;2023-05-07T07:33:15;21.50;76.30
32600;DHT22;19277;51.778;7.912;2023-05-07T07:35:42;21.50;76.20
32600;DHT22;19277;51.778;7.912;2023-05-07T07:38:07;21.60;75.50
32600;DHT22;19277;51.778;7.912;2023-05-07T07:40:36;21.60;75.70
32600;DHT22;19277;51.778;7.912;2023-05-07T07:43:02;21.60;75.60
32600;DHT22;19277;51.778;7.912;2023-05-07T07:45:27;21.60;76.10
32600;DHT22;19277;51.778;7.912;2023-05-07T07:47:53;21.70;75.70
32600;DHT22;19277;51.778;7.912;2023-05-07T07:50:18;21.60;75.10
32600;DHT22;19277;51.778;7.912;2023-05-07T07:52:44;21.60;75.90
32600;DHT22;19277;51.778;7.912;2023-05-07T07:55:10;21.60;76.20
32600;DHT22;19277;51.778;7.912;2023-05-07T07:57:36;21.60;75.60
32600;DHT22;19277;51.778;7.912;2023-05-07T08:00:02;21.60;75.50
32600;DHT22;19277;51.778;7.912;2023-05-07T08:02:27;21.70;75.20
32600;DHT22;19277;51.778;7.912;2023-05-07T08:04:53;21.70;75.20
32600;DHT22;19277;51.778;7.912;2023-05-07T08:07:18;21.90;75.00
32600;DHT22;19277;51.778;7.912;2023-05-07T08:09:46;21.90;74.70
32600;DHT22;19277;51.778;7.912;2023-05-07T08:12:11;21.80;74.40
32600;DHT22;19277;51.778;7.912;2023-05-07T08:14:37;21.80;74.40
32600;DHT22;19277;51.778;7.912;2023-05-07T08:17:03;21.70;74.10
32600;DHT22;19277;51.778;7.912;2023-05-07T08:19:28;21.80;74.50
32600;DHT22;19277;51.778;7.912;2023-05-07T08:21:54;21.80;74.00
32600;DHT22;19277;51.778;7.912;2023-05-07T08:24:20;21.90;73.80
32600;DHT22;19277;51.778;7.912;2023-05-07T08:26:46;21.80;73.70
32600;DHT22;19277;51.778;7.912;2023-05-07T08:29:11;21.90;73.90
32600;DHT22;19277;51.778;7.912;2023-05-07T08:31:37;21.90;73.70
32600;DHT22;19277;51.778;7.912;2023-05-07T08:34:05;22.00;73.50
32600;DHT22;19277;51.778;7.912;2023-05-07T08:36:31;22.00;73.00
32600;DHT22;19277;51.778;7.912;2023-05-07T08:38:57;22.10;73.30
32600;DHT22;19277;51.778;7.912;2023-05-07T08:41:23;22.10;73.00
32600;DHT22;19277;51.778;7.912;2023-05-07T08:43:49;22.20;72.90
32600;DHT22;19277;51.778;7.912;2023-05-07T08:46:21;22.20;72.90
32600;DHT22;19277;51.778;7.912;2023-05-07T08:48:50;22.10;73.00
32600;DHT22;19277;51.778;7.912;2023-05-07T08:51:18;22.10;73.20
32600;DHT22;19277;51.778;7.912;2023-05-07T08:53:44;22.20;73.00
32600;DHT22;19277;51.778;7.912;2023-05-07T08:56:11;22.30;72.60
32600;DHT22;19277;51.778;7.912;2023-05-07T08:58:37;22.30;72.80
32600;DHT22;19277;51.778;7.912;2023-05-07T09:01:09;22.30;72.60
32600;DHT22;19277;51.778;7.912;2023-05-07T09:03:36;22.30;72.20
32600;DHT22;19277;51.778;7.912;2023-05-07T09:06:03;22.30;72.50
32600;DHT22;19277;51.778;7.912;2023-05-07T09:08:28;22.30;72.50
32600;DHT22;19277;51.778;7.912;2023-05-07T09:10:54;22.40;72.20
32600;DHT22;19277;51.778;7.912;2023-05-07T09:13:20;22.40;71.80
32600;DHT22;19277;51.778;7.912;2023-05-07T09:15:45;22.40;71.80
32600;DHT22;19277;51.778;7.912;2023-05-07T09:18:12;22.30;71.90
32600;DHT22;19277;51.778;7.912;2023-05-07T09:20:38;22.30;72.10
32600;DHT22;19277;51.778;7.912;2023-05-07T09:23:06;22.20;72.10
32600;DHT22;19277;51.778;7.912;2023-05-07T09:25:34;22.20;72.10
32600;DHT22;19277;51.778;7.912;2023-05-07T09:28:04;22.20;72.40
32600;DHT22;19277;51.778;7.912;2023-05-07T09:30:31;22.10;72.30
32600;DHT22;19277;51.778;7.912;2023-05-07T09:33:01;22.10;72.50
32600;DHT22;19277;51.778;7.912;2023-05-07T09:35:27;22.10;72.50
32600;DHT22;19277;51.778;7.912;2023-05-07T09:37:54;22.10;72.50
32600;DHT22;19277;51.778;7.912;2023-05-07T09:40:24;22.10;72.40
32600;DHT22;19277;51.778;7.912;2023-05-07T09:42:50;22.10;72.40
32600;DHT22;19277;51.778;7.912;2023-05-07T09:45:22;22.10;72.10
32600;DHT22;19277;51.778;7.912;2023-05-07T09:47:48;22.10;72.20
32600;DHT22;19277;51.778;7.912;2023-05-07T09:50:16;22.10;72.70
32600;DHT22;19277;51.778;7.912;2023-05-07T09:52:42;22.10;72.90
32600;DHT22;19277;51.778;7.912;2023-05-07T09:55:09;22.10;72.80
32600;DHT22;19277;51.778;7.912;2023-05-07T09:57:36;22.20;72.40
32600;DHT22;19277;51.778;7.912;2023-05-07T10:00:03;22.10;72.50
32600;DHT22;19277;51.778;7.912;2023-05-07T10:02:34;22.10;72.40
32600;DHT22;19277;51.778;7.912;2023-05-07T10:05:01;22.10;72.50
32600;DHT22;19277;51.778;7.912;2023-05-07T10:07:27;22.10;73.10
32600;DHT22;19277;51.778;7.912;2023-05-07T10:09:54;22.20;73.50
32600;DHT22;19277;51.778;7.912;2023-05-07T10:12:20;22.20;73.50
32600;DHT22;19277;51.778;7.912;2023-05-07T10:14:46;22.30;73.50
32600;DHT22;19277;51.778;7.912;2023-05-07T10:17:13;22.30;72.90
32600;DHT22;19277;51.778;7.912;2023-05-07T10:19:40;22.30;73.10
32600;DHT22;19277;51.778;7.912;2023-05-07T10:22:07;22.30;73.40
32600;DHT22;19277;51.778;7.912;2023-05-07T10:24:34;22.30;73.40
32600;DHT22;19277;51.778;7.912;2023-05-07T10:27:04;22.30;73.30
32600;DHT22;19277;51.778;7.912;2023-05-07T10:34:55;22.30;73.80
32600;DHT22;19277;51.778;7.912;2023-05-07T10:37:22;22.20;73.50
32600;DHT22;19277;51.778;7.912;2023-05-07T10:39:48;22.30;73.40
32600;DHT22;19277;51.778;7.912;2023-05-07T10:42:14;22.40;74.00
32600;DHT22;19277;51.778;7.912;2023-05-07T10:44:40;22.40;73.80
32600;DHT22;19277;51.778;7.912;2023-05-07T10:47:08;22.40;73.50
32600;DHT22;19277;51.778;7.912;2023-05-07T10:52:22;22.40;73.90
32600;DHT22;19277;51.778;7.912;2023-05-07T10:57:42;22.50;73.60
32600;DHT22;19277;51.778;7.912;2023-05-07T11:05:29;22.50;73.20
32600;DHT22;19277;51.778;7.912;2023-05-07T11:07:56;22.30;74.40
32600;DHT22;19277;51.778;7.912;2023-05-07T11:10:22;22.20;74.90
32600;DHT22;19277;51.778;7.912;2023-05-07T11:12:52;22.20;75.20
32600;DHT22;19277;51.778;7.912;2023-05-07T11:15:35;22.10;75.20
32600;DHT22;19277;51.778;7.912;2023-05-07T11:18:01;22.00;75.50
32600;DHT22;19277;51.778;7.912;2023-05-07T11:20:52;22.10;75.00
32600;DHT22;19277;51.778;7.912;2023-05-07T11:26:06;22.20;74.50
32600;DHT22;19277;51.778;7.912;2023-05-07T11:28:37;22.20;74.90
32600;DHT22;19277;51.778;7.912;2023-05-07T11:31:04;22.20;74.60
32600;DHT22;19277;51.778;7.912;2023-05-07T11:33:33;22.30;74.40
32600;DHT22;19277;51.778;7.912;2023-05-07T11:35:59;22.30;74.40
32600;DHT22;19277;51.778;7.912;2023-05-07T11:38:25;22.30;74.30
32600;DHT22;19277;51.778;7.912;2023-05-07T11:40:52;22.30;74.00
32600;DHT22;19277;51.778;7.912;2023-05-07T11:43:18;22.30;74.30
32600;DHT22;19277;51.778;7.912;2023-05-07T11:45:45;22.30;73.90
32600;DHT22;19277;51.778;7.912;2023-05-07T11:48:13;22.30;74.20
32600;DHT22;19277;51.778;7.912;2023-05-07T11:50:52;22.40;74.20
32600;DHT22;19277;51.778;7.912;2023-05-07T11:53:18;22.40;74.00
32600;DHT22;19277;51.778;7.912;2023-05-07T11:55:45;22.50;74.10
32600;DHT22;19277;51.778;7.912;2023-05-07T11:58:12;22.50;73.60
32600;DHT22;19277;51.778;7.912;2023-05-07T12:00:54;22.50;72.70
32600;DHT22;19277;51.778;7.912;2023-05-07T12:03:20;22.50;73.10
32600;DHT22;19277;51.778;7.912;2023-05-07T12:05:47;22.40;73.00
32600;DHT22;19277;51.778;7.912;2023-05-07T12:08:20;22.40;73.40
32600;DHT22;19277;51.778;7.912;2023-05-07T12:10:48;22.40;73.30
32600;DHT22;19277;51.778;7.912;2023-05-07T12:13:24;22.50;73.20
32600;DHT22;19277;51.778;7.912;2023-05-07T12:15:51;22.50;73.40
32600;DHT22;19277;51.778;7.912;2023-05-07T12:18:18;22.50;72.70
32600;DHT22;19277;51.778;7.912;2023-05-07T12:20:43;22.50;72.50
32600;DHT22;19277;51.778;7.912;2023-05-07T12:23:10;22.50;73.00
32600;DHT22;19277;51.778;7.912;2023-05-07T12:25:37;22.40;73.40
32600;DHT22;19277;51.778;7.912;2023-05-07T12:28:03;22.40;74.00
32600;DHT22;19277;51.778;7.912;2023-05-07T12:30:37;22.40;72.80
32600;DHT22;19277;51.778;7.912;2023-05-07T12:33:02;22.40;73.10
32600;DHT22;19277;51.778;7.912;2023-05-07T12:35:39;22.30;72.90
32600;DHT22;19277;51.778;7.912;2023-05-07T12:38:12;22.30;73.10
32600;DHT22;19277;51.778;7.912;2023-05-07T12:40:54;22.40;73.10
32600;DHT22;19277;51.778;7.912;2023-05-07T12:43:21;22.40;73.00
32600;DHT22;19277;51.778;7.912;2023-05-07T12:45:49;22.50;73.50
32600;DHT22;19277;51.778;7.912;2023-05-07T12:48:15;22.60;73.30
32600;DHT22;19277;51.778;7.912;2023-05-07T12:50:42;22.60;72.70
32600;DHT22;19277;51.778;7.912;2023-05-07T12:53:10;22.60;72.20
32600;DHT22;19277;51.778;7.912;2023-05-07T12:55:44;22.60;72.40
32600;DHT22;19277;51.778;7.912;2023-05-07T12:58:27;22.60;72.20
32600;DHT22;19277;51.778;7.912;2023-05-07T13:00:55;22.70;72.00
32600;DHT22;19277;51.778;7.912;2023-05-07T13:03:30;22.70;72.10
32600;DHT22;19277;51.778;7.912;2023-05-07T13:06:01;22.70;72.40
32600;DHT22;19277;51.778;7.912;2023-05-07T13:08:35;22.70;73.20
32600;DHT22;19277;51.778;7.912;2023-05-07T13:11:02;22.70;73.40
32600;DHT22;19277;51.778;7.912;2023-05-07T13:13:32;22.70;73.90
32600;DHT22;19277;51.778;7.912;2023-05-07T13:15:57;22.70;73.20
32600;DHT22;19277;51.778;7.912;2023-05-07T13:18:24;22.70;73.10
32600;DHT22;19277;51.778;7.912;2023-05-07T13:20:50;22.80;73.70
32600;DHT22;19277;51.778;7.912;2023-05-07T13:23:16;22.70;74.30
32600;DHT22;19277;51.778;7.912;2023-05-07T13:25:42;22.80;73.50
32600;DHT22;19277;51.778;7.912;2023-05-07T13:28:08;22.80;73.90
32600;DHT22;19277;51.778;7.912;2023-05-07T13:30:33;22.80;73.80
32600;DHT22;19277;51.778;7.912;2023-05-07T13:32:59;22.80;73.20
32600;DHT22;19277;51.778;7.912;2023-05-07T13:35:25;22.80;73.60
32600;DHT22;19277;51.778;7.912;2023-05-07T13:37:51;22.80;73.50
32600;DHT22;19277;51.778;7.912;2023-05-07T13:40:17;22.80;72.90
32600;DHT22;19277;51.778;7.912;2023-05-07T13:42:44;22.80;75.00
32600;DHT22;19277;51.778;7.912;2023-05-07T13:45:10;22.90;73.90
32600;DHT22;19277;51.778;7.912;2023-05-07T13:47:35;22.90;73.20
32600;DHT22;19277;51.778;7.912;2023-05-07T13:50:01;23.00;72.90
32600;DHT22;19277;51.778;7.912;2023-05-07T13:52:27;22.90;72.50
32600;DHT22;19277;51.778;7.912;2023-05-07T13:54:52;22.90;73.10
32600;DHT22;19277;51.778;7.912;2023-05-07T13:57:18;22.80;73.50
32600;DHT22;19277;51.778;7.912;2023-05-07T13:59:44;22.80;73.30
32600;DHT22;19277;51.778;7.912;2023-05-07T14:02:09;22.80;73.20
32600;DHT22;19277;51.778;7.912;2023-05-07T14:04:35;22.80;73.00
32600;DHT22;19277;51.778;7.912;2023-05-07T14:07:01;22.80;73.00
32600;DHT22;19277;51.778;7.912;2023-05-07T14:09:26;22.80;73.30
32600;DHT22;19277;51.778;7.912;2023-05-07T14:11:52;22.90;73.00
32600;DHT22;19277;51.778;7.912;2023-05-07T14:14:18;22.90;73.30
32600;DHT22;19277;51.778;7.912;2023-05-07T14:16:44;22.90;72.70
32600;DHT22;19277;51.778;7.912;2023-05-07T14:19:11;22.90;73.00
32600;DHT22;19277;51.778;7.912;2023-05-07T14:21:36;22.90;73.20
32600;DHT22;19277;51.778;7.912;2023-05-07T14:24:02;22.90;73.10
32600;DHT22;19277;51.778;7.912;2023-05-07T14:26:28;22.90;73.20
32600;DHT22;19277;51.778;7.912;2023-05-07T14:28:54;22.90;73.10
32600;DHT22;19277;51.778;7.912;2023-05-07T14:31:22;22.90;73.40
32600;DHT22;19277;51.778;7.912;2023-05-07T14:33:48;22.90;73.20
32600;DHT22;19277;51.778;7.912;2023-05-07T14:36:16;22.90;73.70
32600;DHT22;19277;51.778;7.912;2023-05-07T14:38:42;22.90;73.40
32600;DHT22;19277;51.778;7.912;2023-05-07T14:41:08;22.90;73.50
32600;DHT22;19277;51.778;7.912;2023-05-07T14:43:33;22.90;73.60
32600;DHT22;19277;51.778;7.912;2023-05-07T14:45:59;22.90;74.10
32600;DHT22;19277;51.778;7.912;2023-05-07T14:48:24;22.90;73.00
32600;DHT22;19277;51.778;7.912;2023-05-07T14:50:50;23.00;73.20
32600;DHT22;19277;51.778;7.912;2023-05-07T14:53:15;23.00;72.90
32600;DHT22;19277;51.778;7.912;2023-05-07T14:55:41;23.00;72.80
32600;DHT22;19277;51.778;7.912;2023-05-07T14:58:07;23.00;72.40
32600;DHT22;19277;51.778;7.912;2023-05-07T15:00:33;23.00;72.70
32600;DHT22;19277;51.778;7.912;2023-05-07T15:03:05;22.90;72.70
32600;DHT22;19277;51.778;7.912;2023-05-07T15:05:31;22.90;72.90
32600;DHT22;19277;51.778;7.912;2023-05-07T15:07:57;22.90;72.60
32600;DHT22;19277;51.778;7.912;2023-05-07T15:10:23;22.80;72.60
32600;DHT22;19277;51.778;7.912;2023-05-07T15:12:48;22.90;72.40
32600;DHT22;19277;51.778;7.912;2023-05-07T15:15:14;22.90;72.10
32600;DHT22;19277;51.778;7.912;2023-05-07T15:17:40;22.90;72.20
32600;DHT22;19277;51.778;7.912;2023-05-07T15:20:08;22.80;72.20
32600;DHT22;19277;51.778;7.912;2023-05-07T15:22:34;22.80;72.50
32600;DHT22;19277;51.778;7.912;2023-05-07T15:25:01;22.80;72.50
32600;DHT22;19277;51.778;7.912;2023-05-07T15:27:27;22.80;71.80
32600;DHT22;19277;51.778;7.912;2023-05-07T15:29:52;22.80;72.00
32600;DHT22;19277;51.778;7.912;2023-05-07T15:32:18;22.80;72.30
32600;DHT22;19277;51.778;7.912;2023-05-07T15:34:43;22.70;71.80
32600;DHT22;19277;51.778;7.912;2023-05-07T15:37:09;22.70;72.00
32600;DHT22;19277;51.778;7.912;2023-05-07T15:39:35;22.70;72.10
32600;DHT22;19277;51.778;7.912;2023-05-07T15:42:00;22.70;72.30
32600;DHT22;19277;51.778;7.912;2023-05-07T15:44:26;22.70;72.30